Time;durP1;ratioP1;P1;durP2;ratioP2;P2;SDS_P1;SDS_P2;PMS_P1;PMS_P2;Temp;Humidity;BMP_temperature;BMP_pressure;BME280_temperature;BME280_humidity;BME280_pressure;Samples;Min_cycle;Max_cycle;Signal;HPM_P1;HPM_P2
2023/03/01 00:01:25;;;;;;;28.90;18.20;;;1.30;99.90;;;;;;5030218;28;20046;-40
2023/03/01 00:03:52;;;;;;;30.20;18.77;;;1.40;99.90;;;;;;5029015;28;20427;-55
2023/03/01 00:06:19;;;;;;;31.48;17.83;;;1.40;99.90;;;;;;5030303;28;20029;-45
2023/03/01 00:08:44;;;;;;;32.22;19.45;;;1.30;99.90;;;;;;5030090;28;20014;-44
2023/03/01 00:11:15;;;;;;;31.05;20.02;;;1.30;99.90;;;;;;5030337;28;20116;-45
2023/03/01 00:13:42;;;;;;;30.95;20.02;;;1.40;99.90;;;;;;5030289;28;20025;-45
2023/03/01 00:16:14;;;;;;;33.00;20.10;;;1.40;99.90;;;;;;5030192;28;20500;-48
2023/03/01 00:18:40;;;;;;;36.13;19.75;;;1.40;99.90;;;;;;5033472;28;20538;-46
2023/03/01 00:21:05;;;;;;;30.88;20.30;;;1.40;99.90;;;;;;5034035;28;20029;-42
2023/03/01 00:23:34;;;;;;;31.63;19.77;;;1.40;99.90;;;;;;5028371;28;20052;-51
2023/03/01 00:25:59;;;;;;;31.20;18.55;;;1.30;99.90;;;;;;5030062;28;20021;-38
2023/03/01 00:28:25;;;;;;;33.05;20.25;;;1.20;99.90;;;;;;5044559;28;20052;-42
2023/03/01 00:30:50;;;;;;;33.47;19.70;;;1.10;99.90;;;;;;5034063;28;20477;-43
2023/03/01 00:33:16;;;;;;;30.17;19.67;;;1.10;99.90;;;;;;5033977;28;20469;-41
2023/03/01 00:35:42;;;;;;;31.73;19.52;;;1.00;99.90;;;;;;5033869;28;20037;-43
2023/03/01 00:38:08;;;;;;;32.10;18.67;;;1.00;99.90;;;;;;5035537;28;20029;-35
2023/03/01 00:40:35;;;;;;;36.42;20.05;;;1.00;99.90;;;;;;5045662;28;20049;-39
2023/03/01 00:43:01;;;;;;;36.58;19.08;;;0.90;99.90;;;;;;5053932;28;20043;-42
2023/03/01 00:45:27;;;;;;;31.55;19.70;;;0.90;99.90;;;;;;5053531;28;20033;-35
2023/03/01 00:47:53;;;;;;;33.08;19.83;;;0.80;99.90;;;;;;5053528;28;20318;-41
2023/03/01 00:50:19;;;;;;;33.60;20.33;;;0.80;99.90;;;;;;5053381;28;20043;-37
2023/03/01 00:52:45;;;;;;;36.35;21.40;;;0.80;99.90;;;;;;5053584;28;20037;-36
2023/03/01 00:55:11;;;;;;;36.25;21.58;;;0.80;99.90;;;;;;5053208;28;20542;-39
2023/03/01 00:57:38;;;;;;;34.75;21.17;;;0.80;99.90;;;;;;5048264;28;20025;-45
2023/03/01 01:00:09;;;;;;;36.88;21.70;;;0.80;99.90;;;;;;5047523;28;20037;-42
2023/03/01 01:02:36;;;;;;;29.88;19.98;;;0.80;99.90;;;;;;5053286;28;20060;-50
2023/03/01 01:05:01;;;;;;;36.45;21.92;;;0.80;99.90;;;;;;5053247;28;20041;-43
2023/03/01 01:07:27;;;;;;;33.17;21.08;;;0.80;99.90;;;;;;5053431;28;20024;-40
2023/03/01 01:09:52;;;;;;;37.83;22.50;;;0.70;99.90;;;;;;5053394;28;20032;-40
2023/03/01 01:12:18;;;;;;;35.75;20.77;;;0.70;99.90;;;;;;5053167;28;20067;-39
2023/03/01 01:14:44;;;;;;;34.00;20.77;;;0.60;99.90;;;;;;5053101;28;20380;-40
2023/03/01 01:17:09;;;;;;;33.58;20.02;;;0.60;99.90;;;;;;5053146;28;20073;-40
2023/03/01 01:19:35;;;;;;;33.65;21.38;;;0.60;99.90;;;;;;5052898;28;20032;-39
2023/03/01 01:22:01;;;;;;;34.80;21.42;;;0.60;99.90;;;;;;5053101;28;20111;-43
2023/03/01 01:24:27;;;;;;;34.25;20.85;;;0.60;99.90;;;;;;5046752;28;20029;-50
2023/03/01 01:26:52;;;;;;;35.22;21.55;;;0.50;99.90;;;;;;5044718;28;20502;-47
2023/03/01 01:29:18;;;;;;;34.80;20.05;;;0.50;99.90;;;;;;5032362;28;20079;-44
2023/03/01 01:31:44;;;;;;;33.13;21.42;;;0.50;99.90;;;;;;5032783;28;20112;-47
2023/03/01 01:34:15;;;;;;;35.95;21.38;;;0.50;99.90;;;;;;5032021;28;20083;-49
2023/03/01 01:36:40;;;;;;;36.03;21.80;;;0.40;99.90;;;;;;5031081;28;20502;-49
2023/03/01 01:39:07;;;;;;;41.65;22.58;;;0.40;99.90;;;;;;5033083;28;20034;-55
2023/03/01 01:41:33;;;;;;;37.17;22.02;;;0.40;99.90;;;;;;5032857;28;20033;-54
2023/03/01 01:44:24;;;;;;;34.58;21.55;;;0.40;99.90;;;;;;5032750;28;20487;-52
2023/03/01 01:46:55;;;;;;;33.42;20.33;;;0.40;99.90;;;;;;5032584;28;20018;-57
2023/03/01 01:49:41;;;;;;;33.22;20.77;;;0.40;99.90;;;;;;5032552;28;20098;-59
2023/03/01 01:52:22;;;;;;;37.05;21.48;;;0.40;99.90;;;;;;5031460;28;20022;-59
2023/03/01 01:54:56;;;;;;;35.53;21.13;;;0.30;99.90;;;;;;5032664;28;20037;-56
2023/03/01 01:57:34;;;;;;;32.47;21.00;;;0.30;99.90;;;;;;5031137;28;20600;-43
2023/03/01 02:00:12;;;;;;;39.08;20.73;;;0.20;99.90;;;;;;5032717;28;20033;-40
2023/03/01 02:02:38;;;;;;;36.95;22.60;;;0.20;99.90;;;;;;5032222;28;20053;-43
2023/03/01 02:05:14;;;;;;;39.10;23.45;;;0.20;99.90;;;;;;5032175;28;20108;-43
2023/03/01 02:07:41;;;;;;;39.95;23.60;;;0.30;99.90;;;;;;5019382;28;20048;-44
2023/03/01 02:10:07;;;;;;;37.10;21.98;;;0.30;99.90;;;;;;5032423;28;20017;-48
2023/03/01 02:12:34;;;;;;;39.80;23.38;;;0.20;99.90;;;;;;5032101;28;20184;-51
2023/03/01 02:14:59;;;;;;;42.47;22.38;;;0.20;99.90;;;;;;5032160;28;20025;-42
2023/03/01 02:17:25;;;;;;;38.25;22.33;;;0.20;99.90;;;;;;5031721;28;20022;-53
2023/03/01 02:20:10;;;;;;;40.38;22.48;;;0.20;99.90;;;;;;5031937;28;20384;-37
2023/03/01 02:22:38;;;;;;;38.22;22.77;;;0.10;99.90;;;;;;5031771;28;20166;-47
2023/03/01 02:25:18;;;;;;;40.13;22.20;;;0.10;99.90;;;;;;5031815;28;20105;-37
2023/03/01 02:27:55;;;;;;;39.42;21.65;;;0.10;99.90;;;;;;5031249;28;20066;-36
2023/03/01 02:30:22;;;;;;;37.88;23.00;;;0.10;99.90;;;;;;5031859;28;20085;-44
2023/03/01 02:32:50;;;;;;;38.95;22.60;;;0.10;99.90;;;;;;5031878;28;20030;-52
2023/03/01 02:35:18;;;;;;;37.85;22.60;;;0.00;99.90;;;;;;5031486;28;20040;-51
2023/03/01 02:37:44;;;;;;;41.38;23.10;;;0.10;99.90;;;;;;5031924;28;20032;-47
2023/03/01 02:40:18;;;;;;;37.15;21.45;;;0.00;99.90;;;;;;5030663;28;20025;-53
2023/03/01 02:42:54;;;;;;;37.42;22.30;;;0.00;99.90;;;;;;5030309;28;20025;-59
2023/03/01 02:45:20;;;;;;;37.70;21.70;;;0.00;99.90;;;;;;5031421;28;20028;-44
2023/03/01 02:47:45;;;;;;;36.47;21.40;;;0.00;99.90;;;;;;5031826;28;20029;-42
2023/03/01 02:50:29;;;;;;;37.60;21.48;;;0.00;99.90;;;;;;5031192;28;20108;-51
2023/03/01 02:53:03;;;;;;;38.08;21.58;;;-0.10;99.90;;;;;;5031380;28;20048;-51
2023/03/01 02:55:29;;;;;;;37.40;22.27;;;-0.10;99.90;;;;;;5030011;28;20056;-56
2023/03/01 02:57:56;;;;;;;35.95;21.65;;;0.00;99.90;;;;;;5031251;28;20088;-39
2023/03/01 03:00:27;;;;;;;38.05;23.58;;;0.00;99.90;;;;;;5031279;28;20029;-40
2023/03/01 03:02:53;;;;;;;41.75;22.75;;;0.00;99.90;;;;;;5031608;28;20056;-45
2023/03/01 03:05:27;;;;;;;38.30;22.48;;;0.10;99.90;;;;;;5029499;28;20036;-40
2023/03/01 03:07:53;;;;;;;45.65;23.35;;;0.10;99.90;;;;;;5031446;28;20049;-40
2023/03/01 03:10:28;;;;;;;37.58;22.00;;;0.10;99.90;;;;;;5030959;28;20136;-49
2023/03/01 03:12:58;;;;;;;40.80;22.20;;;0.20;99.90;;;;;;5031089;28;20504;-50
2023/03/01 03:15:24;;;;;;;;;;;0.20;99.90;;;;;;5031232;28;20041;-36
2023/03/01 03:17:51;;;;;;;39.83;22.23;;;0.30;99.90;;;;;;5031086;28;19916;-44
2023/03/01 03:20:19;;;;;;;40.08;23.05;;;0.30;99.90;;;;;;5031140;28;20485;-36
2023/03/01 03:22:47;;;;;;;40.42;23.15;;;0.40;99.90;;;;;;5031093;28;20018;-45
2023/03/01 03:25:13;;;;;;;41.28;23.10;;;0.40;99.90;;;;;;5030954;28;20040;-44
2023/03/01 03:27:40;;;;;;;39.58;22.90;;;0.40;99.90;;;;;;5030793;28;20026;-47
2023/03/01 03:30:12;;;;;;;38.83;22.77;;;0.40;99.90;;;;;;5030835;28;20488;-50
2023/03/01 03:32:39;;;;;;;40.17;23.60;;;0.50;99.90;;;;;;5030846;28;20128;-50
2023/03/01 03:35:09;;;;;;;44.05;25.27;;;0.60;99.90;;;;;;5030677;28;20025;-42
2023/03/01 03:40:23;;;;;;;38.23;22.97;;;0.60;99.90;;;;;;5017453;28;20139;-37
2023/03/01 03:42:49;;;;;;;40.08;22.77;;;0.60;99.90;;;;;;5030622;28;20022;-36
2023/03/01 03:45:16;;;;;;;40.20;23.48;;;0.60;99.90;;;;;;5029048;28;20389;-49
2023/03/01 03:47:42;;;;;;;38.40;22.70;;;0.60;99.90;;;;;;5030525;28;20037;-40
2023/03/01 03:50:12;;;;;;;41.40;24.10;;;0.60;99.90;;;;;;5030444;28;20033;-38
2023/03/01 03:52:38;;;;;;;41.50;22.73;;;0.70;99.90;;;;;;5030565;28;20026;-40
2023/03/01 03:55:10;;;;;;;40.92;23.90;;;0.70;99.90;;;;;;5030417;28;20032;-37
2023/03/01 03:57:40;;;;;;;41.47;23.00;;;0.70;99.90;;;;;;5030496;28;20037;-37
2023/03/01 04:00:12;;;;;;;39.78;24.17;;;0.70;99.90;;;;;;5030557;28;20044;-36
2023/03/01 04:02:44;;;;;;;38.72;23.48;;;0.70;99.90;;;;;;5030465;28;20088;-42
2023/03/01 04:05:12;;;;;;;42.25;24.00;;;0.80;99.90;;;;;;5030130;28;20493;-55
2023/03/01 04:07:38;;;;;;;39.97;22.67;;;0.80;99.90;;;;;;5030494;28;20026;-45
2023/03/01 04:10:10;;;;;;;37.30;21.95;;;0.90;99.90;;;;;;5030675;28;20032;-43
2023/03/01 04:12:36;;;;;;;36.35;21.73;;;0.90;99.90;;;;;;5030352;28;20057;-36
2023/03/01 04:15:12;;;;;;;41.72;23.45;;;0.90;99.90;;;;;;5030177;28;20509;-38
2023/03/01 04:17:46;;;;;;;37.97;23.08;;;0.90;99.90;;;;;;5042811;28;20078;-36
2023/03/01 04:20:24;;;;;;;37.05;22.58;;;1.00;99.90;;;;;;5049621;28;20244;-37
2023/03/01 04:22:52;;;;;;;40.75;23.20;;;1.10;99.90;;;;;;5050065;28;20040;-36
2023/03/01 04:25:18;;;;;;;40.80;24.08;;;1.10;99.90;;;;;;5049964;28;20025;-37
2023/03/01 04:27:43;;;;;;;41.08;23.17;;;1.10;99.90;;;;;;5050003;28;20056;-45
2023/03/01 04:30:10;;;;;;;39.50;23.80;;;1.10;99.90;;;;;;5050049;28;20049;-40
2023/03/01 04:32:35;;;;;;;41.10;24.08;;;1.20;99.90;;;;;;5050228;28;20107;-37
2023/03/01 04:35:01;;;;;;;39.90;23.60;;;1.10;99.90;;;;;;5049500;28;20462;-43
2023/03/01 04:37:27;;;;;;;40.08;23.00;;;1.00;99.90;;;;;;5048845;28;20029;-39
2023/03/01 04:39:53;;;;;;;37.85;23.10;;;0.90;99.90;;;;;;5049991;28;20033;-42
2023/03/01 04:42:19;;;;;;;37.78;22.17;;;0.80;99.90;;;;;;5050157;28;20052;-56
2023/03/01 04:44:45;;;;;;;40.00;22.15;;;0.70;99.90;;;;;;5036580;28;20037;-42
2023/03/01 04:47:11;;;;;;;34.95;21.55;;;0.60;99.90;;;;;;5050166;28;20114;-43
2023/03/01 04:49:37;;;;;;;37.83;21.88;;;0.50;99.90;;;;;;5049773;28;20472;-41
2023/03/01 04:52:04;;;;;;;41.50;23.77;;;0.40;99.90;;;;;;5049706;28;20028;-45
2023/03/01 04:54:31;;;;;;;38.42;21.60;;;0.40;99.90;;;;;;5049905;28;20048;-51
2023/03/01 04:56:57;;;;;;;40.25;23.73;;;0.30;99.90;;;;;;5048492;28;20048;-43
2023/03/01 04:59:23;;;;;;;41.97;24.20;;;0.20;99.90;;;;;;5049697;28;20073;-51
2023/03/01 05:01:50;;;;;;;37.22;21.10;;;0.20;99.90;;;;;;5044079;28;20515;-41
2023/03/01 05:04:15;;;;;;;36.97;21.52;;;0.10;99.90;;;;;;5048369;28;20024;-48
2023/03/01 05:06:41;;;;;;;37.30;20.80;;;0.00;99.90;;;;;;5053481;28;20369;-52
2023/03/01 05:09:06;;;;;;;35.75;21.00;;;0.00;99.90;;;;;;5053203;28;20388;-36
2023/03/01 05:11:35;;;;;;;35.38;19.73;;;0.00;99.90;;;;;;5053316;28;20040;-48
2023/03/01 05:14:02;;;;;;;33.73;19.07;;;-0.10;99.90;;;;;;5053338;28;20021;-37
2023/03/01 05:16:28;;;;;;;33.33;18.52;;;0.00;99.90;;;;;;5053554;28;20029;-50
2023/03/01 05:18:55;;;;;;;34.42;19.10;;;0.00;99.90;;;;;;5042255;28;20091;-44
2023/03/01 05:21:21;;;;;;;33.38;19.67;;;0.00;99.90;;;;;;5050409;28;20019;-39
2023/03/01 05:23:46;;;;;;;32.17;18.73;;;-0.10;99.90;;;;;;5053213;28;20399;-56
2023/03/01 05:26:13;;;;;;;32.17;18.15;;;-0.10;99.90;;;;;;5053253;28;20100;-42
2023/03/01 05:28:39;;;;;;;29.52;16.88;;;-0.10;99.90;;;;;;5053226;28;20025;-54
2023/03/01 05:31:09;;;;;;;33.33;19.10;;;-0.20;99.90;;;;;;5052841;28;20377;-45
2023/03/01 05:33:38;;;;;;;;;;;-0.20;99.90;;;;;;5039734;28;20562;-55
2023/03/01 05:36:04;;;;;;;32.77;18.63;;;-0.30;99.90;;;;;;5048051;28;19912;-44
2023/03/01 05:38:30;;;;;;;32.70;17.55;;;-0.30;99.90;;;;;;5053060;28;20040;-47
2023/03/01 05:40:56;;;;;;;32.85;19.30;;;-0.30;99.90;;;;;;5052969;28;20111;-55
2023/03/01 05:43:22;;;;;;;32.60;18.10;;;-0.30;99.90;;;;;;5052709;28;20159;-55
2023/03/01 05:45:47;;;;;;;36.92;20.60;;;-0.30;99.90;;;;;;5052682;28;20033;-46
2023/03/01 05:48:13;;;;;;;36.13;19.55;;;-0.20;99.90;;;;;;5051567;28;20044;-40
2023/03/01 05:50:42;;;;;;;35.33;20.05;;;-0.20;99.90;;;;;;5052608;28;20029;-48
2023/03/01 05:53:20;;;;;;;38.00;20.35;;;-0.20;99.90;;;;;;5052519;28;20361;-48
2023/03/01 05:55:47;;;;;;;42.00;20.42;;;-0.10;99.90;;;;;;5052541;28;20072;-49
2023/03/01 05:58:18;;;;;;;34.38;18.95;;;-0.10;99.90;;;;;;5051088;28;20032;-53
2023/03/01 06:00:46;;;;;;;34.03;17.92;;;-0.10;99.90;;;;;;5052371;28;20025;-44
2023/03/01 06:03:13;;;;;;;36.10;18.00;;;-0.10;99.90;;;;;;5051099;28;20033;-44
2023/03/01 06:05:40;;;;;;;31.52;16.77;;;0.00;99.90;;;;;;5047922;28;20502;-38
2023/03/01 06:08:06;;;;;;;32.20;17.02;;;0.10;99.90;;;;;;5052351;28;20488;-50
2023/03/01 06:10:32;;;;;;;33.40;16.17;;;0.10;99.90;;;;;;5052208;28;20029;-54
2023/03/01 06:12:58;;;;;;;36.47;17.95;;;0.10;99.90;;;;;;5052106;28;20464;-49
2023/03/01 06:15:24;;;;;;;34.17;16.13;;;0.30;99.90;;;;;;5051218;28;20384;-40
2023/03/01 06:17:50;;;;;;;38.58;17.20;;;0.30;99.90;;;;;;5052228;28;20063;-39
2023/03/01 06:20:21;;;;;;;32.95;16.60;;;0.30;99.90;;;;;;5051976;28;20469;-40
2023/03/01 06:22:49;;;;;;;33.92;15.15;;;0.40;99.90;;;;;;5052140;28;20028;-60
2023/03/01 06:25:18;;;;;;;36.03;15.85;;;0.40;99.90;;;;;;5051672;28;20029;-41
2023/03/01 06:27:44;;;;;;;35.55;15.57;;;0.60;99.90;;;;;;5051694;28;20071;-50
2023/03/01 06:30:14;;;;;;;30.42;16.05;;;0.80;99.90;;;;;;5051835;28;20060;-46
2023/03/01 06:32:43;;;;;;;34.33;15.40;;;0.90;99.90;;;;;;5041728;28;20065;-50
2023/03/01 06:35:11;;;;;;;30.77;14.73;;;0.90;99.90;;;;;;5044238;28;20025;-50
2023/03/01 06:37:36;;;;;;;27.20;14.40;;;0.90;99.90;;;;;;5051564;28;20036;-58
2023/03/01 06:40:07;;;;;;;29.95;14.40;;;1.00;99.90;;;;;;5051516;28;20033;-53
2023/03/01 06:42:37;;;;;;;28.90;14.57;;;1.00;99.90;;;;;;5051727;28;20044;-42
2023/03/01 06:45:05;;;;;;;26.73;13.52;;;1.00;99.90;;;;;;5051340;28;20415;-51
2023/03/01 06:47:32;;;;;;;22.50;12.85;;;1.00;99.90;;;;;;5051461;28;20194;-42
2023/03/01 06:49:59;;;;;;;32.50;13.88;;;1.00;99.90;;;;;;5050807;28;20025;-51
2023/03/01 06:52:25;;;;;;;28.67;13.20;;;1.00;99.90;;;;;;5051266;28;20025;-45
2023/03/01 06:54:50;;;;;;;26.67;13.07;;;1.30;99.90;;;;;;5051168;28;20139;-47
2023/03/01 06:57:16;;;;;;;31.00;13.98;;;1.30;99.90;;;;;;5050939;28;20036;-44
2023/03/01 06:59:42;;;;;;;24.85;12.82;;;1.50;99.90;;;;;;5048026;28;20041;-43
2023/03/01 07:02:11;;;;;;;32.13;12.82;;;1.50;99.90;;;;;;5041676;28;20053;-46
2023/03/01 07:04:37;;;;;;;32.67;12.85;;;1.50;99.90;;;;;;5030794;28;20021;-36
2023/03/01 07:07:02;;;;;;;29.65;12.82;;;1.50;99.90;;;;;;5030863;28;20398;-46
2023/03/01 07:09:28;;;;;;;30.30;13.73;;;1.60;99.90;;;;;;5031135;28;20095;-46
2023/03/01 07:11:54;;;;;;;31.10;13.25;;;1.70;99.90;;;;;;5031017;28;20021;-45
2023/03/01 07:14:19;;;;;;;35.58;14.63;;;1.70;99.90;;;;;;5031223;28;20045;-52
2023/03/01 07:16:45;;;;;;;26.05;13.55;;;1.70;99.90;;;;;;5030786;28;20064;-43
2023/03/01 07:19:11;;;;;;;29.48;12.85;;;1.80;99.90;;;;;;5030583;28;20033;-50
2023/03/01 07:21:38;;;;;;;27.20;12.77;;;1.80;99.90;;;;;;5030519;28;20087;-40
2023/03/01 07:24:06;;;;;;;25.73;13.27;;;1.80;99.90;;;;;;5031067;28;20538;-36
2023/03/01 07:26:32;;;;;;;24.98;11.45;;;1.90;99.90;;;;;;5038178;28;20037;-42
2023/03/01 07:29:03;;;;;;;29.88;13.10;;;2.10;99.90;;;;;;5030834;28;20358;-53
2023/03/01 07:31:28;;;;;;;24.33;13.50;;;2.20;99.90;;;;;;5030001;28;20480;-45
2023/03/01 07:33:54;;;;;;;24.88;12.75;;;2.40;99.90;;;;;;5030785;28;20024;-39
2023/03/01 07:36:20;;;;;;;23.77;12.50;;;2.60;99.90;;;;;;5038257;28;20041;-38
2023/03/01 07:38:46;;;;;;;22.63;12.13;;;2.70;99.90;;;;;;5032499;28;20477;-54
2023/03/01 07:41:12;;;;;;;23.40;12.75;;;2.90;99.90;;;;;;5048627;28;20361;-55
2023/03/01 07:43:37;;;;;;;23.90;12.27;;;3.00;99.90;;;;;;5035065;28;20108;-46
2023/03/01 07:46:04;;;;;;;23.95;11.95;;;3.10;99.90;;;;;;5030637;28;20048;-55
2023/03/01 07:48:30;;;;;;;22.80;12.80;;;3.20;99.90;;;;;;5030535;28;20025;-46
2023/03/01 07:51:00;;;;;;;18.23;11.45;;;3.30;99.90;;;;;;5030345;28;20032;-43
2023/03/01 07:53:27;;;;;;;23.02;12.15;;;3.60;99.90;;;;;;5030617;28;20026;-43
2023/03/01 07:56:03;;;;;;;22.25;11.35;;;3.70;99.90;;;;;;5030337;28;20037;-38
2023/03/01 07:58:29;;;;;;;20.27;11.60;;;3.90;99.90;;;;;;5030617;28;20120;-48
2023/03/01 08:00:54;;;;;;;19.40;11.43;;;4.10;99.90;;;;;;5029919;28;20104;-37
2023/03/01 08:03:20;;;;;;;22.65;11.75;;;4.20;99.90;;;;;;5030155;28;20384;-43
2023/03/01 08:05:46;;;;;;;18.30;10.48;;;4.40;99.90;;;;;;5029738;28;20052;-42
2023/03/01 08:08:11;;;;;;;18.80;10.73;;;4.50;99.90;;;;;;5029406;28;20115;-36
2023/03/01 08:10:37;;;;;;;20.52;10.48;;;4.60;99.90;;;;;;5030038;28;20026;-38
2023/03/01 08:13:02;;;;;;;16.25;9.55;;;4.60;99.90;;;;;;5029535;28;20056;-38
2023/03/01 08:15:28;;;;;;;15.05;9.25;;;4.80;99.90;;;;;;5029656;28;20042;-51
2023/03/01 08:17:54;;;;;;;14.00;8.85;;;5.10;99.90;;;;;;5029784;28;20113;-56
2023/03/01 08:20:19;;;;;;;14.40;8.23;;;5.30;99.90;;;;;;5030150;28;20036;-40
2023/03/01 08:22:45;;;;;;;13.68;7.50;;;5.40;99.90;;;;;;5026917;28;20048;-47
2023/03/01 08:25:11;;;;;;;11.13;7.93;;;5.50;99.90;;;;;;5039518;28;20029;-41
2023/03/01 08:27:36;;;;;;;11.48;7.60;;;5.50;99.90;;;;;;5049995;28;20445;-48
2023/03/01 08:30:02;;;;;;;13.30;7.53;;;5.70;99.90;;;;;;5035201;28;20024;-38
2023/03/01 08:32:28;;;;;;;13.20;7.65;;;5.80;99.90;;;;;;5020707;28;20514;-57
2023/03/01 08:34:54;;;;;;;11.80;7.63;;;5.90;99.90;;;;;;5013559;28;20050;-44
2023/03/01 08:37:19;;;;;;;12.63;7.43;;;5.90;99.90;;;;;;5024245;28;20033;-43
2023/03/01 08:39:46;;;;;;;10.82;7.10;;;6.00;99.90;;;;;;5023893;28;20075;-51
2023/03/01 08:42:11;;;;;;;12.05;7.03;;;6.30;99.90;;;;;;5036029;28;20036;-46
2023/03/01 08:44:37;;;;;;;11.35;7.53;;;6.50;99.90;;;;;;5026393;28;20025;-36
2023/03/01 08:47:04;;;;;;;12.25;7.30;;;6.60;99.90;;;;;;5031708;28;20030;-37
2023/03/01 08:49:32;;;;;;;11.02;7.43;;;7.10;99.90;;;;;;5033144;28;20033;-48
2023/03/01 08:51:58;;;;;;;9.77;6.50;;;7.30;99.90;;;;;;5031089;28;20480;-53
2023/03/01 08:54:23;;;;;;;10.70;6.32;;;8.00;99.90;;;;;;5035332;28;20053;-52
2023/03/01 08:56:49;;;;;;;10.07;6.80;;;8.50;99.90;;;;;;5014310;28;20037;-44
2023/03/01 08:59:17;;;;;;;9.73;6.03;;;8.80;99.90;;;;;;5032092;28;20108;-38
2023/03/01 09:01:45;;;;;;;9.52;6.53;;;8.60;99.90;;;;;;5031752;28;20095;-42
2023/03/01 09:04:15;;;;;;;10.48;6.60;;;8.80;99.90;;;;;;5031296;28;20036;-39
2023/03/01 09:06:41;;;;;;;9.20;6.50;;;8.90;99.90;;;;;;5030773;28;20503;-39
2023/03/01 09:09:14;;;;;;;9.55;6.43;;;10.00;99.90;;;;;;5027615;28;20036;-45
2023/03/01 09:11:40;;;;;;;8.18;6.18;;;11.50;99.90;;;;;;5017753;28;20022;-40
2023/03/01 09:14:06;;;;;;;9.18;5.63;;;12.80;99.90;;;;;;5025718;28;20037;-51
2023/03/01 09:16:35;;;;;;;8.57;5.75;;;13.70;96.50;;;;;;5033141;28;20030;-48
2023/03/01 09:19:02;;;;;;;7.93;5.63;;;14.60;94.30;;;;;;5033238;28;20171;-40
2023/03/01 09:21:28;;;;;;;8.75;5.93;;;15.70;88.60;;;;;;5032788;28;20072;-43
2023/03/01 09:23:55;;;;;;;7.15;5.25;;;16.60;83.80;;;;;;5032422;28;20053;-40
2023/03/01 09:26:22;;;;;;;7.40;5.53;;;16.70;79.10;;;;;;5035082;28;20120;-43
2023/03/01 09:28:50;;;;;;;6.93;5.43;;;17.60;74.20;;;;;;5032335;28;20025;-38
2023/03/01 09:31:18;;;;;;;6.55;5.18;;;16.70;71.90;;;;;;5031653;28;20168;-44
2023/03/01 09:33:49;;;;;;;7.72;5.45;;;17.00;75.70;;;;;;5039940;28;20036;-51
2023/03/01 09:36:21;;;;;;;6.65;5.07;;;16.30;71.90;;;;;;5039255;28;20045;-51
2023/03/01 09:38:48;;;;;;;6.45;5.15;;;15.80;73.50;;;;;;5028314;28;20411;-39
2023/03/01 09:41:46;;;;;;;6.60;4.80;;;14.70;75.40;;;;;;5030955;28;20030;-56
2023/03/01 09:44:23;;;;;;;5.95;4.80;;;13.20;80.30;;;;;;5011318;28;20049;-44
2023/03/01 09:46:51;;;;;;;6.80;4.80;;;12.60;80.70;;;;;;5028327;28;20040;-58
2023/03/01 09:49:27;;;;;;;6.63;4.45;;;11.60;85.30;;;;;;5029974;28;20018;-50
2023/03/01 09:52:00;;;;;;;6.43;4.50;;;10.90;89.30;;;;;;5031213;28;20124;-50
2023/03/01 09:54:27;;;;;;;7.18;4.68;;;10.80;90.20;;;;;;5030911;28;20028;-39
2023/03/01 09:57:27;;;;;;;5.82;4.03;;;10.60;91.50;;;;;;5032824;28;20118;-45
2023/03/01 09:59:58;;;;;;;5.55;3.28;;;10.50;92.20;;;;;;5029343;28;20447;-56
2023/03/01 10:02:38;;;;;;;6.18;3.65;;;10.20;93.10;;;;;;5029363;28;20369;-54
2023/03/01 10:05:27;;;;;;;3.95;2.70;;;10.30;94.40;;;;;;5027792;28;20034;-43
2023/03/01 10:08:25;;;;;;;5.85;2.92;;;10.60;94.00;;;;;;5025221;28;20021;-44
2023/03/01 10:10:53;;;;;;;5.32;2.80;;;9.90;94.00;;;;;;5025107;28;20068;-49
2023/03/01 10:13:27;;;;;;;6.32;2.63;;;9.50;95.40;;;;;;5033384;28;20025;-43
2023/03/01 10:16:16;;;;;;;4.10;2.90;;;9.40;96.60;;;;;;5036383;28;20132;-44
2023/03/01 10:18:46;;;;;;;5.55;2.65;;;9.20;97.50;;;;;;5041584;28;20503;-46
2023/03/01 10:21:18;;;;;;;5.55;2.33;;;9.30;99.90;;;;;;5033525;28;20087;-38
2023/03/01 10:23:45;;;;;;;4.95;2.30;;;10.30;98.10;;;;;;5030765;28;20048;-58
2023/03/01 10:26:53;;;;;;;3.42;2.00;;;10.10;96.30;;;;;;5031467;28;20476;-40
2023/03/01 10:29:24;;;;;;;4.82;2.58;;;9.90;96.80;;;;;;5044835;28;20472;-49
2023/03/01 10:31:51;;;;;;;3.95;2.22;;;9.50;97.70;;;;;;5048199;28;20028;-42
2023/03/01 10:34:20;;;;;;;4.63;2.50;;;9.00;99.00;;;;;;5040074;28;20053;-52
2023/03/01 10:36:51;;;;;;;4.30;2.17;;;8.80;99.90;;;;;;5051744;28;20045;-40
2023/03/01 10:39:21;;;;;;;5.93;2.53;;;8.70;99.90;;;;;;5051353;28;20062;-38
2023/03/01 10:42:00;;;;;;;6.10;2.53;;;8.60;99.90;;;;;;5051147;28;20025;-37
2023/03/01 10:44:43;;;;;;;4.32;2.35;;;9.40;99.90;;;;;;5051459;28;20087;-38
2023/03/01 10:47:15;;;;;;;3.03;1.70;;;12.10;99.90;;;;;;5051581;28;20033;-38
2023/03/01 10:50:05;;;;;;;1.92;1.40;;;14.60;94.50;;;;;;5051212;28;20037;-38
2023/03/01 10:52:37;;;;;;;2.30;1.30;;;14.60;84.20;;;;;;5051591;28;20029;-38
2023/03/01 10:55:39;;;;;;;2.28;1.60;;;14.00;85.10;;;;;;5051176;28;20017;-39
2023/03/01 10:58:18;;;;;;;3.17;1.80;;;12.90;86.20;;;;;;5035063;28;20512;-41
2023/03/01 11:01:06;;;;;;;3.47;1.60;;;12.10;90.00;;;;;;5024800;28;20129;-37
2023/03/01 11:03:34;;;;;;;4.25;1.40;;;11.60;91.30;;;;;;5036369;28;20033;-43
2023/03/01 11:06:01;;;;;;;2.85;1.77;;;10.70;92.80;;;;;;5027072;28;20032;-47
2023/03/01 11:08:33;;;;;;;3.00;1.70;;;10.00;94.30;;;;;;5026688;28;20616;-56
2023/03/01 11:11:31;;;;;;;2.85;1.40;;;9.40;96.10;;;;;;5019223;28;20026;-40
2023/03/01 11:13:57;;;;;;;3.38;1.77;;;8.80;98.10;;;;;;5027501;28;20054;-41
2023/03/01 11:16:29;;;;;;;2.72;1.65;;;8.40;99.90;;;;;;5031591;28;20071;-41
2023/03/01 11:19:19;;;;;;;3.45;1.50;;;8.40;99.90;;;;;;5033997;28;20041;-52
2023/03/01 11:22:07;;;;;;;4.05;1.70;;;8.30;99.90;;;;;;5027229;28;20036;-40
2023/03/01 11:24:46;;;;;;;2.67;1.58;;;8.30;99.90;;;;;;5027362;28;20036;-41
2023/03/01 11:27:26;;;;;;;3.28;1.80;;;8.20;99.90;;;;;;5027750;28;20111;-53
2023/03/01 11:30:18;;;;;;;5.68;1.90;;;8.10;99.90;;;;;;5038497;28;20033;-50
2023/03/01 11:33:08;;;;;;;3.08;1.85;;;8.40;99.90;;;;;;5015640;28;20083;-44
2023/03/01 11:35:37;;;;;;;3.08;1.50;;;8.70;99.90;;;;;;5024907;28;20060;-40
2023/03/01 11:38:28;;;;;;;2.83;1.13;;;9.00;99.90;;;;;;5026339;28;21203;-51
2023/03/01 11:41:14;;;;;;;2.30;1.15;;;9.00;99.90;;;;;;5017930;28;20555;-45
2023/03/01 11:43:58;;;;;;;2.15;1.40;;;9.40;99.90;;;;;;5021609;28;20030;-36
2023/03/01 11:46:33;;;;;;;3.45;1.25;;;9.40;99.90;;;;;;5015621;28;20156;-46
2023/03/01 11:49:05;;;;;;;3.08;1.30;;;10.10;99.90;;;;;;5042297;28;20060;-38
2023/03/01 11:51:38;;;;;;;2.45;1.30;;;10.70;99.90;;;;;;5033674;28;20091;-49
2023/03/01 11:54:17;;;;;;;7.88;3.45;;;11.30;97.40;;;;;;5029771;28;20067;-47
2023/03/01 11:57:05;;;;;;;5.13;1.48;;;11.00;95.90;;;;;;5032784;28;20046;-42
2023/03/01 12:00:05;;;;;;;5.50;1.45;;;10.70;96.70;;;;;;5029772;28;20030;-42
2023/03/01 12:03:15;;;;;;;5.68;1.48;;;9.90;97.50;;;;;;5024050;28;20116;-45
2023/03/01 12:05:52;;;;;;;2.78;1.40;;;9.30;99.80;;;;;;5029845;28;20033;-37
2023/03/01 12:08:39;;;;;;;3.47;1.60;;;8.90;99.90;;;;;;5030541;28;20017;-37
2023/03/01 12:11:28;;;;;;;4.80;1.52;;;8.70;99.90;;;;;;5022435;28;20052;-38
2023/03/01 12:14:05;;;;;;;6.93;1.50;;;8.60;99.90;;;;;;5033287;28;20488;-43
2023/03/01 12:16:45;;;;;;;3.20;1.45;;;8.50;99.90;;;;;;5031733;28;20790;-40
2023/03/01 12:19:19;;;;;;;3.65;1.23;;;8.50;99.90;;;;;;5033261;28;20017;-50
2023/03/01 12:22:09;;;;;;;5.47;1.70;;;8.70;99.90;;;;;;5026074;28;20021;-51
2023/03/01 12:24:57;;;;;;;3.38;1.70;;;8.60;99.90;;;;;;5034521;28;20029;-39
2023/03/01 12:27:49;;;;;;;7.30;1.97;;;8.50;99.90;;;;;;5043111;28;20140;-38
2023/03/01 12:30:36;;;;;;;4.80;1.75;;;8.30;99.90;;;;;;5034699;28;20105;-43
2023/03/01 12:33:07;;;;;;;5.50;1.50;;;8.30;99.90;;;;;;5046185;28;20121;-44
2023/03/01 12:36:07;;;;;;;6.10;1.60;;;8.40;99.90;;;;;;5039358;28;20045;-39
2023/03/01 12:38:43;;;;;;;3.28;1.60;;;8.40;99.90;;;;;;5025640;28;20502;-43
2023/03/01 12:41:20;;;;;;;3.13;1.60;;;8.20;99.90;;;;;;5043522;28;20026;-51
2023/03/01 12:44:26;;;;;;;4.88;1.85;;;8.00;99.90;;;;;;5027601;28;20041;-54
2023/03/01 12:47:15;;;;;;;4.10;1.58;;;7.90;99.90;;;;;;5027778;28;20499;-43
2023/03/01 12:49:47;;;;;;;5.68;2.10;;;7.90;99.90;;;;;;5028407;28;20025;-46
2023/03/01 12:52:24;;;;;;;4.50;2.08;;;7.90;99.90;;;;;;5028691;28;20057;-42
2023/03/01 12:54:53;;;;;;;4.72;1.70;;;7.90;99.90;;;;;;5031882;28;20039;-46
2023/03/01 12:57:36;;;;;;;4.65;1.75;;;7.80;99.90;;;;;;5029814;28;20033;-47
2023/03/01 13:00:23;;;;;;;3.70;1.70;;;7.80;99.90;;;;;;5021281;28;20059;-49
2023/03/01 13:03:00;;;;;;;4.63;1.90;;;7.70;99.90;;;;;;5030860;28;20053;-45
2023/03/01 13:05:47;;;;;;;3.80;1.73;;;7.70;99.90;;;;;;5030099;28;20057;-50